sensor_id;sensor_type;location;lat;lon;timestamp;P1;durP1;ratioP1;P2;durP2;ratioP2
16837;SDS011;19510;54.486;9.046;2023-04-04T05:06:24;6.97;;;3.00;;
16837;SDS011;19510;54.486;9.046;2023-04-04T05:08:49;7.43;;;4.03;;
16837;SDS011;19510;54.486;9.046;2023-04-04T05:11:15;8.70;;;3.30;;
16837;SDS011;19510;54.486;9.046;2023-04-04T05:13:41;9.40;;;3.27;;
16837;SDS011;19510;54.486;9.046;2023-04-04T05:22:51;5.53;;;3.30;;
16837;SDS011;19510;54.486;9.046;2023-04-04T05:25:17;6.87;;;3.63;;
16837;SDS011;19510;54.486;9.046;2023-04-04T05:27:45;5.63;;;3.77;;
16837;SDS011;19510;54.486;9.046;2023-04-04T05:30:13;8.33;;;3.43;;
16837;SDS011;19510;54.486;9.046;2023-04-04T05:32:39;9.23;;;3.47;;
16837;SDS011;19510;54.486;9.046;2023-04-04T05:35:05;9.03;;;3.10;;
16837;SDS011;19510;54.486;9.046;2023-04-04T05:37:31;7.90;;;3.87;;
16837;SDS011;19510;54.486;9.046;2023-04-04T05:39:56;13.73;;;3.70;;
16837;SDS011;19510;54.486;9.046;2023-04-04T05:42:27;8.20;;;3.30;;
16837;SDS011;19510;54.486;9.046;2023-04-04T05:44:53;10.03;;;3.67;;
16837;SDS011;19510;54.486;9.046;2023-04-04T05:47:18;8.47;;;3.57;;
16837;SDS011;19510;54.486;9.046;2023-04-04T05:49:45;8.90;;;3.80;;
16837;SDS011;19510;54.486;9.046;2023-04-04T05:52:11;8.43;;;3.67;;
16837;SDS011;19510;54.486;9.046;2023-04-04T05:54:40;11.20;;;4.00;;
16837;SDS011;19510;54.486;9.046;2023-04-04T05:57:06;15.30;;;4.50;;
16837;SDS011;19510;54.486;9.046;2023-04-04T05:59:32;11.43;;;3.57;;
16837;SDS011;19510;54.486;9.046;2023-04-04T06:02:00;8.80;;;4.00;;
16837;SDS011;19510;54.486;9.046;2023-04-04T06:04:28;12.07;;;4.07;;
16837;SDS011;19510;54.486;9.046;2023-04-04T06:06:53;12.67;;;4.47;;
16837;SDS011;19510;54.486;9.046;2023-04-04T06:09:19;49.87;;;23.33;;
16837;SDS011;19510;54.486;9.046;2023-04-04T06:11:45;18.87;;;6.30;;
16837;SDS011;19510;54.486;9.046;2023-04-04T06:14:11;18.37;;;5.27;;
16837;SDS011;19510;54.486;9.046;2023-04-04T06:16:36;15.67;;;5.23;;
16837;SDS011;19510;54.486;9.046;2023-04-04T06:19:02;8.47;;;4.47;;
16837;SDS011;19510;54.486;9.046;2023-04-04T06:21:28;12.57;;;4.10;;
16837;SDS011;19510;54.486;9.046;2023-04-04T06:23:57;8.70;;;3.90;;
16837;SDS011;19510;54.486;9.046;2023-04-04T06:26:23;10.50;;;3.90;;
16837;SDS011;19510;54.486;9.046;2023-04-04T06:28:53;11.60;;;3.80;;
16837;SDS011;19510;54.486;9.046;2023-04-04T06:31:19;9.17;;;3.83;;
16837;SDS011;19510;54.486;9.046;2023-04-04T06:33:45;9.20;;;3.27;;
16837;SDS011;19510;54.486;9.046;2023-04-04T06:36:11;7.93;;;3.20;;
16837;SDS011;19510;54.486;9.046;2023-04-04T06:38:39;11.40;;;3.77;;
16837;SDS011;19510;54.486;9.046;2023-04-04T06:41:05;6.30;;;2.90;;
16837;SDS011;19510;54.486;9.046;2023-04-04T06:43:31;8.80;;;3.73;;
16837;SDS011;19510;54.486;9.046;2023-04-04T06:45:56;10.37;;;3.27;;
16837;SDS011;19510;54.486;9.046;2023-04-04T06:48:23;7.33;;;3.73;;
16837;SDS011;19510;54.486;9.046;2023-04-04T06:50:48;8.03;;;2.80;;
16837;SDS011;19510;54.486;9.046;2023-04-04T06:53:16;5.63;;;2.87;;
16837;SDS011;19510;54.486;9.046;2023-04-04T06:55:42;9.23;;;2.63;;
16837;SDS011;19510;54.486;9.046;2023-04-04T06:58:08;8.57;;;3.47;;
16837;SDS011;19510;54.486;9.046;2023-04-04T07:00:38;10.97;;;3.60;;
16837;SDS011;19510;54.486;9.046;2023-04-04T07:03:04;6.43;;;3.40;;
16837;SDS011;19510;54.486;9.046;2023-04-04T07:05:32;8.60;;;3.90;;
16837;SDS011;19510;54.486;9.046;2023-04-04T07:08:03;15.20;;;4.23;;
16837;SDS011;19510;54.486;9.046;2023-04-04T07:10:29;10.37;;;3.53;;
16837;SDS011;19510;54.486;9.046;2023-04-04T07:12:54;7.10;;;3.47;;
16837;SDS011;19510;54.486;9.046;2023-04-04T07:15:20;10.87;;;3.70;;
16837;SDS011;19510;54.486;9.046;2023-04-04T07:17:47;7.10;;;3.40;;
16837;SDS011;19510;54.486;9.046;2023-04-04T07:20:13;7.57;;;3.57;;
16837;SDS011;19510;54.486;9.046;2023-04-04T07:22:39;9.53;;;3.77;;
16837;SDS011;19510;54.486;9.046;2023-04-04T07:25:06;7.77;;;3.73;;
16837;SDS011;19510;54.486;9.046;2023-04-04T07:27:32;14.03;;;3.63;;
16837;SDS011;19510;54.486;9.046;2023-04-04T07:29:58;8.00;;;4.00;;
16837;SDS011;19510;54.486;9.046;2023-04-04T07:32:24;7.67;;;3.10;;
16837;SDS011;19510;54.486;9.046;2023-04-04T07:34:50;5.73;;;3.33;;
16837;SDS011;19510;54.486;9.046;2023-04-04T07:37:15;6.83;;;3.30;;
16837;SDS011;19510;54.486;9.046;2023-04-04T07:39:42;6.27;;;3.50;;
16837;SDS011;19510;54.486;9.046;2023-04-04T07:42:08;8.80;;;3.20;;
16837;SDS011;19510;54.486;9.046;2023-04-04T07:44:34;9.77;;;3.13;;
16837;SDS011;19510;54.486;9.046;2023-04-04T07:47:00;7.13;;;2.57;;
16837;SDS011;19510;54.486;9.046;2023-04-04T07:49:28;6.07;;;3.00;;
16837;SDS011;19510;54.486;9.046;2023-04-04T07:51:53;6.67;;;2.60;;
16837;SDS011;19510;54.486;9.046;2023-04-04T07:54:19;6.40;;;2.90;;
16837;SDS011;19510;54.486;9.046;2023-04-04T07:56:46;4.07;;;1.90;;
16837;SDS011;19510;54.486;9.046;2023-04-04T07:59:12;4.67;;;2.33;;
16837;SDS011;19510;54.486;9.046;2023-04-04T08:01:37;5.97;;;2.10;;
16837;SDS011;19510;54.486;9.046;2023-04-04T08:04:03;10.07;;;2.10;;
16837;SDS011;19510;54.486;9.046;2023-04-04T08:06:29;4.87;;;2.10;;
16837;SDS011;19510;54.486;9.046;2023-04-04T08:08:55;5.33;;;1.70;;
16837;SDS011;19510;54.486;9.046;2023-04-04T08:11:24;4.50;;;2.07;;
16837;SDS011;19510;54.486;9.046;2023-04-04T08:13:52;3.60;;;1.63;;
16837;SDS011;19510;54.486;9.046;2023-04-04T08:16:18;4.53;;;2.30;;
16837;SDS011;19510;54.486;9.046;2023-04-04T08:18:45;7.27;;;2.27;;
16837;SDS011;19510;54.486;9.046;2023-04-04T08:21:12;4.17;;;2.23;;
16837;SDS011;19510;54.486;9.046;2023-04-04T08:23:38;3.30;;;1.97;;
16837;SDS011;19510;54.486;9.046;2023-04-04T08:26:04;2.27;;;1.60;;
16837;SDS011;19510;54.486;9.046;2023-04-04T08:28:30;6.70;;;1.77;;
16837;SDS011;19510;54.486;9.046;2023-04-04T08:30:56;5.57;;;2.10;;
16837;SDS011;19510;54.486;9.046;2023-04-04T08:33:21;4.30;;;1.97;;
16837;SDS011;19510;54.486;9.046;2023-04-04T08:35:48;9.67;;;1.80;;
16837;SDS011;19510;54.486;9.046;2023-04-04T08:38:14;3.17;;;1.90;;
16837;SDS011;19510;54.486;9.046;2023-04-04T08:40:40;4.67;;;1.33;;
16837;SDS011;19510;54.486;9.046;2023-04-04T08:43:12;4.07;;;1.73;;
16837;SDS011;19510;54.486;9.046;2023-04-04T08:45:40;3.13;;;1.60;;
16837;SDS011;19510;54.486;9.046;2023-04-04T08:48:07;6.50;;;1.70;;
16837;SDS011;19510;54.486;9.046;2023-04-04T08:50:36;2.47;;;1.40;;
16837;SDS011;19510;54.486;9.046;2023-04-04T08:53:05;4.57;;;1.83;;
16837;SDS011;19510;54.486;9.046;2023-04-04T08:55:37;2.43;;;1.60;;
16837;SDS011;19510;54.486;9.046;2023-04-04T08:58:03;2.20;;;1.73;;
16837;SDS011;19510;54.486;9.046;2023-04-04T09:00:31;7.30;;;1.30;;
16837;SDS011;19510;54.486;9.046;2023-04-04T09:03:04;2.10;;;1.37;;
16837;SDS011;19510;54.486;9.046;2023-04-04T09:05:34;5.17;;;1.23;;
16837;SDS011;19510;54.486;9.046;2023-04-04T09:08:03;2.53;;;1.10;;
16837;SDS011;19510;54.486;9.046;2023-04-04T09:10:31;4.70;;;1.60;;
16837;SDS011;19510;54.486;9.046;2023-04-04T09:13:01;2.80;;;1.30;;
16837;SDS011;19510;54.486;9.046;2023-04-04T09:15:28;3.90;;;1.50;;
16837;SDS011;19510;54.486;9.046;2023-04-04T09:17:55;2.13;;;1.27;;
16837;SDS011;19510;54.486;9.046;2023-04-04T09:23:25;3.40;;;1.33;;
16837;SDS011;19510;54.486;9.046;2023-04-04T09:25:54;3.10;;;1.20;;
16837;SDS011;19510;54.486;9.046;2023-04-04T09:28:20;2.40;;;1.23;;
16837;SDS011;19510;54.486;9.046;2023-04-04T09:30:49;2.60;;;1.10;;
16837;SDS011;19510;54.486;9.046;2023-04-04T09:33:19;2.57;;;1.10;;
16837;SDS011;19510;54.486;9.046;2023-04-04T09:35:50;3.60;;;1.30;;
16837;SDS011;19510;54.486;9.046;2023-04-04T09:38:22;2.03;;;1.20;;
16837;SDS011;19510;54.486;9.046;2023-04-04T09:40:48;2.57;;;1.10;;
16837;SDS011;19510;54.486;9.046;2023-04-04T09:43:16;3.37;;;1.20;;
16837;SDS011;19510;54.486;9.046;2023-04-04T09:45:44;6.40;;;1.30;;
16837;SDS011;19510;54.486;9.046;2023-04-04T09:48:11;8.07;;;5.17;;
16837;SDS011;19510;54.486;9.046;2023-04-04T09:50:44;6.93;;;3.27;;
16837;SDS011;19510;54.486;9.046;2023-04-04T09:53:17;2.37;;;1.87;;
16837;SDS011;19510;54.486;9.046;2023-04-04T09:55:48;4.73;;;1.50;;
16837;SDS011;19510;54.486;9.046;2023-04-04T09:58:16;3.33;;;1.17;;
16837;SDS011;19510;54.486;9.046;2023-04-04T10:00:46;4.40;;;2.13;;
16837;SDS011;19510;54.486;9.046;2023-04-04T10:03:13;2.07;;;1.03;;
16837;SDS011;19510;54.486;9.046;2023-04-04T10:05:40;3.20;;;1.57;;
16837;SDS011;19510;54.486;9.046;2023-04-04T10:08:20;5.07;;;2.20;;
16837;SDS011;19510;54.486;9.046;2023-04-04T10:10:50;1.83;;;1.10;;
16837;SDS011;19510;54.486;9.046;2023-04-04T10:13:26;1.77;;;0.93;;
16837;SDS011;19510;54.486;9.046;2023-04-04T10:15:53;3.50;;;1.07;;
16837;SDS011;19510;54.486;9.046;2023-04-04T10:18:27;2.33;;;1.00;;
16837;SDS011;19510;54.486;9.046;2023-04-04T10:20:57;1.07;;;0.80;;
16837;SDS011;19510;54.486;9.046;2023-04-04T10:23:25;2.00;;;1.00;;
16837;SDS011;19510;54.486;9.046;2023-04-04T10:25:56;4.00;;;1.10;;
16837;SDS011;19510;54.486;9.046;2023-04-04T10:28:23;2.00;;;0.97;;
16837;SDS011;19510;54.486;9.046;2023-04-04T10:30:59;3.43;;;1.30;;
16837;SDS011;19510;54.486;9.046;2023-04-04T10:33:45;1.93;;;1.10;;
16837;SDS011;19510;54.486;9.046;2023-04-04T10:36:20;2.03;;;1.20;;
16837;SDS011;19510;54.486;9.046;2023-04-04T10:38:54;5.90;;;1.20;;
16837;SDS011;19510;54.486;9.046;2023-04-04T10:41:26;1.60;;;0.80;;
16837;SDS011;19510;54.486;9.046;2023-04-04T10:43:55;2.00;;;1.03;;
16837;SDS011;19510;54.486;9.046;2023-04-04T10:46:24;3.03;;;1.30;;
16837;SDS011;19510;54.486;9.046;2023-04-04T10:48:58;1.57;;;1.10;;
16837;SDS011;19510;54.486;9.046;2023-04-04T10:51:25;1.63;;;1.20;;
16837;SDS011;19510;54.486;9.046;2023-04-04T10:53:56;2.20;;;1.00;;
16837;SDS011;19510;54.486;9.046;2023-04-04T10:56:23;4.53;;;1.13;;
16837;SDS011;19510;54.486;9.046;2023-04-04T10:58:49;2.47;;;1.30;;
16837;SDS011;19510;54.486;9.046;2023-04-04T11:01:48;1.90;;;1.00;;
16837;SDS011;19510;54.486;9.046;2023-04-04T11:04:44;1.10;;;1.00;;
16837;SDS011;19510;54.486;9.046;2023-04-04T11:07:11;4.70;;;1.00;;
16837;SDS011;19510;54.486;9.046;2023-04-04T11:09:51;2.60;;;1.20;;
16837;SDS011;19510;54.486;9.046;2023-04-04T11:12:27;1.50;;;1.10;;
16837;SDS011;19510;54.486;9.046;2023-04-04T11:20:35;1.33;;;0.93;;
16837;SDS011;19510;54.486;9.046;2023-04-04T11:23:13;1.27;;;1.00;;
16837;SDS011;19510;54.486;9.046;2023-04-04T11:25:55;3.80;;;1.30;;
16837;SDS011;19510;54.486;9.046;2023-04-04T11:41:51;2.30;;;0.90;;
16837;SDS011;19510;54.486;9.046;2023-04-04T11:44:31;2.23;;;0.83;;
16837;SDS011;19510;54.486;9.046;2023-04-04T11:47:07;1.57;;;0.90;;
16837;SDS011;19510;54.486;9.046;2023-04-04T11:49:35;1.43;;;0.77;;
16837;SDS011;19510;54.486;9.046;2023-04-04T11:52:05;3.83;;;0.80;;
16837;SDS011;19510;54.486;9.046;2023-04-04T11:54:36;2.15;;;0.63;;
16837;SDS011;19510;54.486;9.046;2023-04-04T11:57:04;3.63;;;1.43;;
16837;SDS011;19510;54.486;9.046;2023-04-04T11:59:31;2.17;;;0.77;;
16837;SDS011;19510;54.486;9.046;2023-04-04T12:01:57;0.63;;;0.63;;
16837;SDS011;19510;54.486;9.046;2023-04-04T12:04:29;0.75;;;0.57;;
16837;SDS011;19510;54.486;9.046;2023-04-04T12:06:55;1.00;;;0.65;;
16837;SDS011;19510;54.486;9.046;2023-04-04T12:09:22;1.33;;;0.70;;
16837;SDS011;19510;54.486;9.046;2023-04-04T12:11:49;0.77;;;0.77;;
16837;SDS011;19510;54.486;9.046;2023-04-04T12:16:42;0.70;;;0.70;;
16837;SDS011;19510;54.486;9.046;2023-04-04T12:19:10;1.13;;;0.70;;
16837;SDS011;19510;54.486;9.046;2023-04-04T12:21:38;2.78;;;1.05;;
16837;SDS011;19510;54.486;9.046;2023-04-04T12:24:07;2.30;;;1.08;;
16837;SDS011;19510;54.486;9.046;2023-04-04T12:26:40;1.08;;;0.82;;
16837;SDS011;19510;54.486;9.046;2023-04-04T12:29:11;2.80;;;1.05;;
16837;SDS011;19510;54.486;9.046;2023-04-04T12:31:39;3.65;;;1.20;;
16837;SDS011;19510;54.486;9.046;2023-04-04T12:34:13;4.25;;;2.38;;
16837;SDS011;19510;54.486;9.046;2023-04-04T12:36:55;2.75;;;1.23;;
16837;SDS011;19510;54.486;9.046;2023-04-04T12:39:24;2.03;;;1.20;;
16837;SDS011;19510;54.486;9.046;2023-04-04T12:41:56;1.05;;;0.85;;
16837;SDS011;19510;54.486;9.046;2023-04-04T12:44:34;2.78;;;0.88;;
16837;SDS011;19510;54.486;9.046;2023-04-04T12:47:02;3.08;;;1.10;;
16837;SDS011;19510;54.486;9.046;2023-04-04T12:49:33;3.13;;;1.20;;
16837;SDS011;19510;54.486;9.046;2023-04-04T12:52:02;3.55;;;0.95;;
16837;SDS011;19510;54.486;9.046;2023-04-04T12:54:34;3.10;;;1.00;;
16837;SDS011;19510;54.486;9.046;2023-04-04T12:57:03;1.92;;;1.02;;
16837;SDS011;19510;54.486;9.046;2023-04-04T12:59:33;2.25;;;1.20;;
16837;SDS011;19510;54.486;9.046;2023-04-04T13:02:00;4.88;;;1.30;;
16837;SDS011;19510;54.486;9.046;2023-04-04T13:04:36;2.00;;;1.20;;
16837;SDS011;19510;54.486;9.046;2023-04-04T13:07:03;3.72;;;1.23;;
16837;SDS011;19510;54.486;9.046;2023-04-04T13:09:29;4.32;;;1.38;;
16837;SDS011;19510;54.486;9.046;2023-04-04T13:12:02;2.03;;;0.90;;
16837;SDS011;19510;54.486;9.046;2023-04-04T13:17:20;2.72;;;1.10;;
16837;SDS011;19510;54.486;9.046;2023-04-04T13:19:49;3.20;;;1.08;;
16837;SDS011;19510;54.486;9.046;2023-04-04T13:22:15;4.43;;;1.38;;
16837;SDS011;19510;54.486;9.046;2023-04-04T13:24:41;2.95;;;1.70;;
16837;SDS011;19510;54.486;9.046;2023-04-04T13:27:08;3.20;;;1.00;;
16837;SDS011;19510;54.486;9.046;2023-04-04T13:29:34;2.55;;;1.33;;
16837;SDS011;19510;54.486;9.046;2023-04-04T13:32:02;2.85;;;1.30;;
16837;SDS011;19510;54.486;9.046;2023-04-04T13:34:32;2.70;;;1.20;;
16837;SDS011;19510;54.486;9.046;2023-04-04T13:37:02;3.03;;;1.10;;
16837;SDS011;19510;54.486;9.046;2023-04-04T13:39:30;5.10;;;1.20;;
16837;SDS011;19510;54.486;9.046;2023-04-04T13:41:56;4.45;;;1.30;;
16837;SDS011;19510;54.486;9.046;2023-04-04T13:44:21;1.73;;;1.35;;
16837;SDS011;19510;54.486;9.046;2023-04-04T13:46:49;1.88;;;1.25;;
16837;SDS011;19510;54.486;9.046;2023-04-04T13:49:15;2.30;;;1.38;;
16837;SDS011;19510;54.486;9.046;2023-04-04T13:51:43;2.47;;;1.17;;
16837;SDS011;19510;54.486;9.046;2023-04-04T13:54:10;3.00;;;1.25;;
16837;SDS011;19510;54.486;9.046;2023-04-04T13:56:40;3.17;;;1.33;;
16837;SDS011;19510;54.486;9.046;2023-04-04T13:59:06;2.95;;;1.50;;
16837;SDS011;19510;54.486;9.046;2023-04-04T14:01:32;3.35;;;1.63;;
16837;SDS011;19510;54.486;9.046;2023-04-04T14:03:58;3.58;;;1.63;;
16837;SDS011;19510;54.486;9.046;2023-04-04T14:06:26;2.17;;;1.15;;
16837;SDS011;19510;54.486;9.046;2023-04-04T14:08:54;3.65;;;1.50;;
16837;SDS011;19510;54.486;9.046;2023-04-04T14:11:21;2.55;;;1.30;;
16837;SDS011;19510;54.486;9.046;2023-04-04T14:13:49;3.03;;;1.35;;
16837;SDS011;19510;54.486;9.046;2023-04-04T14:16:18;2.28;;;1.25;;
16837;SDS011;19510;54.486;9.046;2023-04-04T14:18:47;3.78;;;1.50;;
16837;SDS011;19510;54.486;9.046;2023-04-04T14:21:13;2.85;;;1.42;;
16837;SDS011;19510;54.486;9.046;2023-04-04T14:23:42;4.05;;;1.65;;
16837;SDS011;19510;54.486;9.046;2023-04-04T14:26:12;3.17;;;1.50;;
16837;SDS011;19510;54.486;9.046;2023-04-04T14:28:40;2.95;;;1.50;;
16837;SDS011;19510;54.486;9.046;2023-04-04T14:31:08;4.63;;;1.38;;
16837;SDS011;19510;54.486;9.046;2023-04-04T14:33:33;2.92;;;1.40;;
16837;SDS011;19510;54.486;9.046;2023-04-04T14:36:01;4.25;;;1.20;;
16837;SDS011;19510;54.486;9.046;2023-04-04T14:38:29;2.40;;;1.38;;
16837;SDS011;19510;54.486;9.046;2023-04-04T14:40:55;4.13;;;1.30;;
16837;SDS011;19510;54.486;9.046;2023-04-04T14:43:22;1.83;;;1.33;;
16837;SDS011;19510;54.486;9.046;2023-04-04T14:45:51;1.17;;;1.08;;
16837;SDS011;19510;54.486;9.046;2023-04-04T14:48:16;4.55;;;1.40;;
16837;SDS011;19510;54.486;9.046;2023-04-04T14:50:42;2.80;;;1.40;;
16837;SDS011;19510;54.486;9.046;2023-04-04T14:53:10;3.40;;;1.40;;
16837;SDS011;19510;54.486;9.046;2023-04-04T14:55:38;2.55;;;1.58;;
16837;SDS011;19510;54.486;9.046;2023-04-04T14:58:04;2.20;;;1.45;;
16837;SDS011;19510;54.486;9.046;2023-04-04T15:00:31;4.32;;;1.70;;
16837;SDS011;19510;54.486;9.046;2023-04-04T15:02:57;1.58;;;1.40;;
16837;SDS011;19510;54.486;9.046;2023-04-04T15:05:23;3.42;;;1.90;;
16837;SDS011;19510;54.486;9.046;2023-04-04T15:07:50;1.85;;;1.23;;
16837;SDS011;19510;54.486;9.046;2023-04-04T15:10:18;2.33;;;1.48;;
16837;SDS011;19510;54.486;9.046;2023-04-04T15:12:43;1.85;;;1.50;;
16837;SDS011;19510;54.486;9.046;2023-04-04T15:15:09;4.03;;;1.80;;
16837;SDS011;19510;54.486;9.046;2023-04-04T15:17:37;2.72;;;1.40;;
16837;SDS011;19510;54.486;9.046;2023-04-04T15:20:05;2.15;;;1.17;;
16837;SDS011;19510;54.486;9.046;2023-04-04T15:22:32;1.52;;;1.30;;
16837;SDS011;19510;54.486;9.046;2023-04-04T15:25:03;4.05;;;1.50;;
16837;SDS011;19510;54.486;9.046;2023-04-04T15:27:32;2.63;;;1.42;;
16837;SDS011;19510;54.486;9.046;2023-04-04T15:29:58;2.05;;;1.30;;
16837;SDS011;19510;54.486;9.046;2023-04-04T15:32:24;1.15;;;1.00;;
16837;SDS011;19510;54.486;9.046;2023-04-04T15:34:50;1.63;;;0.93;;
16837;SDS011;19510;54.486;9.046;2023-04-04T15:37:19;2.00;;;1.20;;
16837;SDS011;19510;54.486;9.046;2023-04-04T15:39:45;3.53;;;1.17;;
16837;SDS011;19510;54.486;9.046;2023-04-04T15:42:12;3.30;;;1.77;;
16837;SDS011;19510;54.486;9.046;2023-04-04T15:44:41;3.00;;;1.52;;
16837;SDS011;19510;54.486;9.046;2023-04-04T15:47:10;2.95;;;1.60;;
16837;SDS011;19510;54.486;9.046;2023-04-04T15:49:41;2.97;;;1.30;;
16837;SDS011;19510;54.486;9.046;2023-04-04T15:52:06;1.80;;;1.20;;
16837;SDS011;19510;54.486;9.046;2023-04-04T15:54:32;4.63;;;1.50;;
16837;SDS011;19510;54.486;9.046;2023-04-04T15:56:58;2.90;;;1.52;;
16837;SDS011;19510;54.486;9.046;2023-04-04T15:59:23;3.40;;;1.60;;
16837;SDS011;19510;54.486;9.046;2023-04-04T16:01:49;3.88;;;1.73;;
16837;SDS011;19510;54.486;9.046;2023-04-04T16:04:18;3.60;;;1.58;;
16837;SDS011;19510;54.486;9.046;2023-04-04T16:06:46;1.80;;;1.40;;
16837;SDS011;19510;54.486;9.046;2023-04-04T16:09:16;4.00;;;1.67;;
16837;SDS011;19510;54.486;9.046;2023-04-04T16:11:42;6.25;;;1.75;;
16837;SDS011;19510;54.486;9.046;2023-04-04T16:14:10;3.07;;;1.50;;
16837;SDS011;19510;54.486;9.046;2023-04-04T16:16:36;3.00;;;1.77;;
16837;SDS011;19510;54.486;9.046;2023-04-04T16:19:03;2.57;;;1.60;;
16837;SDS011;19510;54.486;9.046;2023-04-04T16:21:34;5.93;;;1.60;;
16837;SDS011;19510;54.486;9.046;2023-04-04T16:24:11;4.37;;;1.90;;
16837;SDS011;19510;54.486;9.046;2023-04-04T16:26:38;3.07;;;1.73;;
16837;SDS011;19510;54.486;9.046;2023-04-04T16:29:10;2.50;;;1.53;;
16837;SDS011;19510;54.486;9.046;2023-04-04T16:31:45;5.83;;;1.50;;
16837;SDS011;19510;54.486;9.046;2023-04-04T16:34:11;3.07;;;1.47;;
16837;SDS011;19510;54.486;9.046;2023-04-04T16:36:39;4.80;;;1.70;;
16837;SDS011;19510;54.486;9.046;2023-04-04T16:39:06;3.77;;;1.93;;
16837;SDS011;19510;54.486;9.046;2023-04-04T16:41:35;3.97;;;1.77;;
16837;SDS011;19510;54.486;9.046;2023-04-04T16:44:04;3.43;;;2.10;;
16837;SDS011;19510;54.486;9.046;2023-04-04T16:46:30;3.13;;;2.03;;
16837;SDS011;19510;54.486;9.046;2023-04-04T16:48:56;4.80;;;1.77;;
16837;SDS011;19510;54.486;9.046;2023-04-04T16:51:22;3.97;;;2.37;;
16837;SDS011;19510;54.486;9.046;2023-04-04T16:53:50;3.83;;;1.50;;
16837;SDS011;19510;54.486;9.046;2023-04-04T16:56:16;3.87;;;1.70;;
16837;SDS011;19510;54.486;9.046;2023-04-04T16:58:46;4.70;;;2.77;;
16837;SDS011;19510;54.486;9.046;2023-04-04T17:01:12;3.13;;;1.43;;
16837;SDS011;19510;54.486;9.046;2023-04-04T17:03:45;3.97;;;1.80;;
16837;SDS011;19510;54.486;9.046;2023-04-04T17:06:11;2.93;;;1.57;;
16837;SDS011;19510;54.486;9.046;2023-04-04T17:08:36;3.17;;;1.77;;
16837;SDS011;19510;54.486;9.046;2023-04-04T17:11:02;4.33;;;1.53;;
16837;SDS011;19510;54.486;9.046;2023-04-04T17:13:34;5.80;;;3.83;;
16837;SDS011;19510;54.486;9.046;2023-04-04T17:16:02;4.87;;;2.83;;
16837;SDS011;19510;54.486;9.046;2023-04-04T17:18:31;3.90;;;2.50;;
16837;SDS011;19510;54.486;9.046;2023-04-04T17:21:00;4.53;;;2.67;;
16837;SDS011;19510;54.486;9.046;2023-04-04T17:23:26;11.03;;;2.10;;
16837;SDS011;19510;54.486;9.046;2023-04-04T17:25:51;7.03;;;2.60;;
16837;SDS011;19510;54.486;9.046;2023-04-04T17:28:19;5.90;;;2.50;;
16837;SDS011;19510;54.486;9.046;2023-04-04T17:30:46;4.83;;;2.30;;
16837;SDS011;19510;54.486;9.046;2023-04-04T17:33:15;5.37;;;2.83;;
16837;SDS011;19510;54.486;9.046;2023-04-04T17:35:41;2.87;;;2.27;;
16837;SDS011;19510;54.486;9.046;2023-04-04T17:38:06;5.57;;;3.07;;
16837;SDS011;19510;54.486;9.046;2023-04-04T17:40:35;7.27;;;2.37;;
16837;SDS011;19510;54.486;9.046;2023-04-04T17:43:04;4.10;;;2.00;;
16837;SDS011;19510;54.486;9.046;2023-04-04T17:45:30;3.70;;;2.07;;
16837;SDS011;19510;54.486;9.046;2023-04-04T17:48:00;6.13;;;3.00;;
16837;SDS011;19510;54.486;9.046;2023-04-04T17:50:28;7.73;;;4.00;;
16837;SDS011;19510;54.486;9.046;2023-04-04T17:52:54;4.07;;;2.40;;
16837;SDS011;19510;54.486;9.046;2023-04-04T17:55:20;3.43;;;2.27;;
16837;SDS011;19510;54.486;9.046;2023-04-04T17:57:46;8.00;;;2.83;;
16837;SDS011;19510;54.486;9.046;2023-04-04T18:00:13;4.97;;;3.03;;
16837;SDS011;19510;54.486;9.046;2023-04-04T18:02:41;4.20;;;2.50;;
16837;SDS011;19510;54.486;9.046;2023-04-04T18:05:09;4.67;;;2.43;;
16837;SDS011;19510;54.486;9.046;2023-04-04T18:07:36;3.63;;;2.23;;
16837;SDS011;19510;54.486;9.046;2023-04-04T18:10:02;3.17;;;1.70;;
16837;SDS011;19510;54.486;9.046;2023-04-04T18:12:28;2.17;;;1.37;;
16837;SDS011;19510;54.486;9.046;2023-04-04T18:14:54;5.07;;;1.80;;
16837;SDS011;19510;54.486;9.046;2023-04-04T18:17:20;3.77;;;2.17;;
16837;SDS011;19510;54.486;9.046;2023-04-04T18:19:46;8.17;;;3.07;;
16837;SDS011;19510;54.486;9.046;2023-04-04T18:22:11;3.53;;;1.63;;
16837;SDS011;19510;54.486;9.046;2023-04-04T18:24:38;3.63;;;1.90;;
16837;SDS011;19510;54.486;9.046;2023-04-04T18:27:04;5.77;;;2.20;;
16837;SDS011;19510;54.486;9.046;2023-04-04T18:29:30;5.00;;;2.00;;
16837;SDS011;19510;54.486;9.046;2023-04-04T18:31:58;2.70;;;1.67;;
16837;SDS011;19510;54.486;9.046;2023-04-04T18:34:28;4.43;;;2.03;;
16837;SDS011;19510;54.486;9.046;2023-04-04T18:36:54;6.47;;;2.53;;
16837;SDS011;19510;54.486;9.046;2023-04-04T18:39:21;4.10;;;2.50;;
16837;SDS011;19510;54.486;9.046;2023-04-04T18:41:48;10.53;;;4.13;;
16837;SDS011;19510;54.486;9.046;2023-04-04T18:44:14;10.83;;;4.50;;
16837;SDS011;19510;54.486;9.046;2023-04-04T18:46:40;7.87;;;4.17;;
16837;SDS011;19510;54.486;9.046;2023-04-04T18:49:08;6.47;;;2.47;;
16837;SDS011;19510;54.486;9.046;2023-04-04T18:51:36;4.27;;;2.30;;
16837;SDS011;19510;54.486;9.046;2023-04-04T18:54:04;4.13;;;1.97;;
16837;SDS011;19510;54.486;9.046;2023-04-04T18:56:38;7.77;;;2.23;;
16837;SDS011;19510;54.486;9.046;2023-04-04T18:59:04;5.37;;;2.33;;
16837;SDS011;19510;54.486;9.046;2023-04-04T19:01:31;5.70;;;2.60;;
16837;SDS011;19510;54.486;9.046;2023-04-04T19:03:59;2.47;;;1.80;;
16837;SDS011;19510;54.486;9.046;2023-04-04T19:06:27;3.67;;;2.17;;
16837;SDS011;19510;54.486;9.046;2023-04-04T19:09:02;4.97;;;2.80;;
16837;SDS011;19510;54.486;9.046;2023-04-04T19:11:31;6.70;;;2.80;;
16837;SDS011;19510;54.486;9.046;2023-04-04T19:14:00;4.07;;;2.30;;
16837;SDS011;19510;54.486;9.046;2023-04-04T19:16:28;4.37;;;2.27;;
16837;SDS011;19510;54.486;9.046;2023-04-04T19:18:54;7.87;;;2.00;;
16837;SDS011;19510;54.486;9.046;2023-04-04T19:21:20;7.67;;;2.67;;
16837;SDS011;19510;54.486;9.046;2023-04-04T19:23:48;5.10;;;2.30;;
16837;SDS011;19510;54.486;9.046;2023-04-04T19:26:21;4.07;;;1.53;;
16837;SDS011;19510;54.486;9.046;2023-04-04T19:28:49;4.33;;;2.43;;
16837;SDS011;19510;54.486;9.046;2023-04-04T19:31:19;4.23;;;1.73;;
16837;SDS011;19510;54.486;9.046;2023-04-04T19:33:49;3.57;;;2.07;;
16837;SDS011;19510;54.486;9.046;2023-04-04T19:36:21;5.43;;;2.13;;
16837;SDS011;19510;54.486;9.046;2023-04-04T19:38:52;5.67;;;2.37;;
16837;SDS011;19510;54.486;9.046;2023-04-04T19:43:49;5.93;;;2.00;;
16837;SDS011;19510;54.486;9.046;2023-04-04T19:46:24;4.70;;;2.20;;
16837;SDS011;19510;54.486;9.046;2023-04-04T19:49:08;3.97;;;2.00;;
16837;SDS011;19510;54.486;9.046;2023-04-04T19:51:38;5.37;;;1.90;;
16837;SDS011;19510;54.486;9.046;2023-04-04T19:56:53;4.73;;;2.10;;
16837;SDS011;19510;54.486;9.046;2023-04-04T20:04:51;3.37;;;2.10;;
16837;SDS011;19510;54.486;9.046;2023-04-04T20:07:19;4.63;;;2.00;;
16837;SDS011;19510;54.486;9.046;2023-04-04T20:09:45;4.63;;;2.33;;
16837;SDS011;19510;54.486;9.046;2023-04-04T20:12:12;5.03;;;2.23;;
16837;SDS011;19510;54.486;9.046;2023-04-04T20:14:40;7.37;;;2.03;;
16837;SDS011;19510;54.486;9.046;2023-04-04T20:17:05;3.53;;;2.10;;
16837;SDS011;19510;54.486;9.046;2023-04-04T20:19:31;8.40;;;1.90;;
16837;SDS011;19510;54.486;9.046;2023-04-04T20:21:59;5.00;;;2.03;;
16837;SDS011;19510;54.486;9.046;2023-04-04T20:24:27;4.43;;;2.17;;
16837;SDS011;19510;54.486;9.046;2023-04-04T20:26:54;4.37;;;1.90;;
16837;SDS011;19510;54.486;9.046;2023-04-04T20:29:25;4.73;;;2.13;;
16837;SDS011;19510;54.486;9.046;2023-04-04T20:31:52;3.83;;;2.20;;
16837;SDS011;19510;54.486;9.046;2023-04-04T20:36:55;7.13;;;2.63;;
16837;SDS011;19510;54.486;9.046;2023-04-04T20:39:41;4.20;;;2.43;;
16837;SDS011;19510;54.486;9.046;2023-04-04T20:44:59;7.93;;;2.20;;
16837;SDS011;19510;54.486;9.046;2023-04-04T20:50:40;9.97;;;2.93;;